Time;durP1;ratioP1;P1;durP2;ratioP2;P2;SDS_P1;SDS_P2;PMS_P1;PMS_P2;Temp;Humidity;BMP_temperature;BMP_pressure;BME280_temperature;BME280_humidity;BME280_pressure;Samples;Min_cycle;Max_cycle;Signal;HPM_P1;HPM_P2
2021/07/04 00:00:31;;;;;;;;;15.25;13.00;;;;;26.17;47.50;100831.31;5022762;28;50943;-42
2021/07/04 00:02:58;;;;;;;;;18.75;17.25;;;;;26.17;47.45;100825.78;5007689;27;51317;-41
2021/07/04 00:05:29;;;;;;;;;20.00;16.75;;;;;26.16;47.50;100829.66;5020849;27;51105;-42
2021/07/04 00:07:54;;;;;;;;;15.75;14.00;;;;;26.16;47.58;100820.50;5012458;28;50985;-42
2021/07/04 00:10:24;;;;;;;;;16.25;14.75;;;;;26.16;47.46;100823.25;5010744;28;51133;-41
2021/07/04 00:12:50;;;;;;;;;16.75;14.00;;;;;26.14;47.52;100831.81;5015117;27;50975;-41
2021/07/04 00:15:19;;;;;;;;;16.00;13.75;;;;;26.14;47.51;100822.66;5011682;28;51230;-41
2021/07/04 00:17:45;;;;;;;;;18.50;14.00;;;;;26.15;47.69;100818.78;5028773;28;51461;-42
2021/07/04 00:20:13;;;;;;;;;15.00;13.50;;;;;26.14;47.69;100826.28;5013058;28;52804;-41
2021/07/04 00:22:40;;;;;;;;;12.25;10.25;;;;;26.14;47.29;100814.34;5011292;28;51556;-41
2021/07/04 00:25:08;;;;;;;;;14.00;13.25;;;;;26.14;47.33;100823.50;5011346;28;50960;-41
2021/07/04 00:27:34;;;;;;;;;17.00;11.00;;;;;26.13;47.54;100816.28;5023729;27;51286;-41
2021/07/04 00:29:59;;;;;;;;;10.25;10.25;;;;;26.13;47.32;100810.72;5026873;27;52652;-41
2021/07/04 00:32:24;;;;;;;;;15.50;10.50;;;;;26.13;47.40;100813.50;5011959;28;51276;-41
2021/07/04 00:34:50;;;;;;;;;11.50;8.75;;;;;26.13;47.58;100807.09;5013822;28;51057;-41
2021/07/04 00:37:16;;;;;;;;;11.25;9.25;;;;;26.12;47.90;100805.44;5029583;28;51050;-41
2021/07/04 00:39:41;;;;;;;;;10.25;10.00;;;;;26.12;47.48;100794.31;5011220;28;51550;-41
2021/07/04 00:42:10;;;;;;;;;14.50;9.75;;;;;26.12;47.60;100791.56;5010411;28;51114;-41
2021/07/04 00:44:35;;;;;;;;;12.00;8.00;;;;;26.10;47.50;100786.25;5010728;28;51211;-41
2021/07/04 00:47:01;;;;;;;;;8.50;8.50;;;;;26.11;47.70;100792.66;5024767;28;51329;-41
2021/07/04 00:49:26;;;;;;;;;9.00;9.00;;;;;26.09;47.70;100790.16;5013972;28;51849;-41
2021/07/04 00:51:51;;;;;;;;;11.25;9.75;;;;;26.09;47.47;100795.69;5011689;28;51047;-41
2021/07/04 00:54:17;;;;;;;;;10.50;8.50;;;;;26.09;47.58;100786.53;5010324;28;51093;-41
2021/07/04 00:56:42;;;;;;;;;8.75;8.00;;;;;26.08;47.52;100794.03;5015290;27;51026;-42
2021/07/04 00:59:08;;;;;;;;;9.75;8.50;;;;;26.09;47.49;100794.88;5023784;27;50966;-42
2021/07/04 01:01:34;;;;;;;;;9.50;7.75;;;;;26.08;47.78;100784.84;5018679;27;51141;-42
2021/07/04 01:04:00;;;;;;;;;8.25;7.25;;;;;26.07;47.82;100785.97;5021058;27;51147;-42
2021/07/04 01:06:25;;;;;;;;;9.00;9.00;;;;;26.08;47.83;100790.41;5015424;28;51215;-42
2021/07/04 01:08:51;;;;;;;;;11.00;8.00;;;;;26.07;47.91;100785.97;5014347;28;51974;-41
2021/07/04 01:11:16;;;;;;;;;8.50;8.50;;;;;26.07;47.89;100772.09;5014554;28;50981;-42
2021/07/04 01:13:42;;;;;;;;;9.00;8.00;;;;;26.07;47.82;100775.69;5014135;28;51463;-42
2021/07/04 01:16:07;;;;;;;;;8.50;8.50;;;;;26.06;47.60;100781.50;5015062;28;50937;-41
2021/07/04 01:18:33;;;;;;;;;9.75;6.50;;;;;26.06;47.64;100774.03;5016246;28;51121;-41
2021/07/04 01:21:01;;;;;;;;;7.75;6.25;;;;;26.07;47.54;100775.69;5014577;28;51100;-41
2021/07/04 01:23:27;;;;;;;;;7.50;7.50;;;;;26.06;47.75;100771.25;5012987;28;51373;-40
2021/07/04 01:25:55;;;;;;;;;7.00;5.25;;;;;26.05;47.71;100769.56;5015510;27;50963;-42
2021/07/04 01:28:21;;;;;;;;;6.25;6.25;;;;;26.05;47.57;100766.78;5040211;27;51248;-41
2021/07/04 01:30:54;;;;;;;;;9.50;7.75;;;;;26.05;47.74;100771.47;5014370;28;50842;-41
2021/07/04 01:33:20;;;;;;;;;9.50;6.75;;;;;26.05;47.95;100771.47;5016110;28;50990;-44
2021/07/04 01:35:45;;;;;;;;;6.50;6.00;;;;;26.04;47.67;100764.25;5016610;27;51108;-40
2021/07/04 01:38:11;;;;;;;;;8.25;7.25;;;;;26.05;47.80;100782.59;5014096;28;51141;-40
2021/07/04 01:40:36;;;;;;;;;8.00;6.25;;;;;26.04;47.83;100772.59;5014370;27;51093;-40
2021/07/04 01:43:02;;;;;;;;;10.00;7.50;;;;;26.03;47.76;100768.97;5013804;28;50990;-40
2021/07/04 01:45:28;;;;;;;;;5.00;5.00;;;;;26.03;47.58;100776.47;5014975;28;51113;-41
2021/07/04 01:47:54;;;;;;;;;4.25;4.00;;;;;26.04;47.43;100764.25;5016589;27;51781;-41
2021/07/04 01:50:26;;;;;;;;;8.00;4.50;;;;;26.03;47.76;100760.63;5017947;28;51295;-43
2021/07/04 01:52:52;;;;;;;;;4.75;4.00;;;;;26.04;47.59;100767.03;5017510;28;50922;-42
2021/07/04 01:55:18;;;;;;;;;7.00;6.50;;;;;26.02;48.02;100767.28;5016639;27;51350;-42
2021/07/04 01:57:45;;;;;;;;;4.75;4.75;;;;;26.03;47.70;100766.19;5026315;28;52016;-43
2021/07/04 02:00:14;;;;;;;;;6.00;5.00;;;;;26.03;47.59;100771.75;5017608;28;51420;-43
2021/07/04 02:02:41;;;;;;;;;7.25;5.25;;;;;26.03;47.90;100768.13;5016868;27;51171;-43
2021/07/04 02:05:08;;;;;;;;;7.25;6.25;;;;;26.03;48.10;100765.34;5027359;27;50689;-42
2021/07/04 02:07:34;;;;;;;;;5.25;4.50;;;;;26.02;47.56;100767.28;5014323;28;51856;-42
2021/07/04 02:09:59;;;;;;;;;6.00;5.50;;;;;26.01;47.74;100762.84;5013974;28;50986;-42
2021/07/04 02:12:25;;;;;;;;;3.25;3.25;;;;;26.00;47.57;100766.72;5013628;27;50936;-42
2021/07/04 02:14:51;;;;;;;;;6.00;4.50;;;;;26.00;47.85;100761.19;5014377;28;50909;-42
2021/07/04 02:17:16;;;;;;;;;7.00;4.75;;;;;26.01;47.98;100759.22;5014507;28;51296;-41
2021/07/04 02:19:41;;;;;;;;;3.75;3.75;;;;;26.00;47.62;100754.78;5022045;28;50999;-40
2021/07/04 02:22:09;;;;;;;;;7.25;5.00;;;;;26.00;47.77;100760.34;5016227;28;51010;-40
2021/07/04 02:24:35;;;;;;;;;5.00;5.00;;;;;25.99;47.75;100753.94;5012196;28;51431;-40
2021/07/04 02:27:02;;;;;;;;;6.00;4.25;;;;;25.99;47.79;100748.41;5020015;27;51942;-41
2021/07/04 02:29:27;;;;;;;;;4.00;4.00;;;;;26.00;47.71;100760.34;5026142;27;51299;-40
2021/07/04 02:31:53;;;;;;;;;4.25;3.50;;;;;25.99;47.64;100755.88;5013439;28;51285;-40
2021/07/04 02:34:18;;;;;;;;;6.25;5.00;;;;;25.98;47.84;100749.50;5016643;28;51361;-41
2021/07/04 02:36:44;;;;;;;;;5.25;5.25;;;;;25.98;47.96;100745.88;5014301;27;51011;-42
2021/07/04 02:39:12;;;;;;;;;5.00;5.00;;;;;25.98;47.99;100737.56;5012323;28;51038;-40
2021/07/04 02:41:37;;;;;;;;;4.75;4.75;;;;;25.98;47.92;100745.88;5014212;28;51202;-41
2021/07/04 02:44:03;;;;;;;;;6.00;4.25;;;;;25.97;47.87;100744.22;5017825;28;51328;-41
2021/07/04 02:46:28;;;;;;;;;4.25;4.25;;;;;25.96;48.13;100751.72;5014336;28;51113;-41
2021/07/04 02:48:53;;;;;;;;;3.75;3.75;;;;;25.97;47.99;100752.53;5015404;28;52513;-42
2021/07/04 02:51:19;;;;;;;;;4.75;3.00;;;;;25.96;48.07;100753.66;5016600;27;51171;-42
2021/07/04 02:53:44;;;;;;;;;3.00;3.00;;;;;25.96;48.18;100761.97;5014096;28;51160;-42
2021/07/04 02:56:10;;;;;;;;;3.75;3.75;;;;;25.96;47.80;100759.19;5019374;28;51007;-43
2021/07/04 02:58:35;;;;;;;;;4.00;4.00;;;;;25.96;47.87;100748.09;5027501;28;51025;-43
2021/07/04 03:01:01;;;;;;;;;4.50;4.50;;;;;25.95;47.88;100747.25;5016042;27;53800;-42
2021/07/04 03:03:27;;;;;;;;;4.00;4.00;;;;;25.96;48.25;100753.66;5016092;28;50982;-41
2021/07/04 03:05:52;;;;;;;;;4.00;4.00;;;;;25.96;47.86;100742.53;5017825;28;50841;-41
2021/07/04 03:08:17;;;;;;;;;5.25;5.25;;;;;25.95;48.19;100749.16;5015121;28;51202;-41
2021/07/04 03:10:43;;;;;;;;;6.50;4.75;;;;;25.96;47.99;100748.09;5016200;28;50932;-41
2021/07/04 03:13:08;;;;;;;;;4.25;4.00;;;;;25.95;48.09;100746.38;5014259;28;50891;-41
2021/07/04 03:15:33;;;;;;;;;5.25;4.50;;;;;25.95;48.00;100740.84;5013906;28;51715;-41
2021/07/04 03:17:59;;;;;;;;;4.50;4.50;;;;;25.95;48.01;100741.72;5015188;28;50953;-41
2021/07/04 03:20:24;;;;;;;;;5.00;3.75;;;;;25.95;47.96;100738.06;5016426;28;51070;-41
2021/07/04 03:22:51;;;;;;;;;5.00;5.00;;;;;25.93;47.92;100730.00;5025412;28;50421;-44
2021/07/04 03:25:18;;;;;;;;;4.50;4.50;;;;;25.94;48.17;100723.34;5019799;28;52056;-41
2021/07/04 03:27:44;;;;;;;;;3.00;3.00;;;;;25.93;48.21;100715.28;5023680;27;51295;-41
2021/07/04 03:30:13;;;;;;;;;3.00;3.00;;;;;25.93;48.12;100720.84;5014575;28;51155;-41
2021/07/04 03:32:40;;;;;;;;;3.25;3.25;;;;;25.92;47.92;100717.22;5014150;28;51071;-41
2021/07/04 03:35:07;;;;;;;;;3.00;3.00;;;;;25.92;48.17;100719.16;5019421;28;51105;-41
2021/07/04 03:37:33;;;;;;;;;5.75;4.25;;;;;25.92;47.90;100710.84;5017477;28;51040;-40
2021/07/04 03:39:59;;;;;;;;;3.00;3.00;;;;;25.91;47.75;100712.78;5012643;28;51008;-41
2021/07/04 03:42:24;;;;;;;;;4.25;3.50;;;;;25.90;48.07;100714.72;5012769;28;51304;-41
2021/07/04 03:44:50;;;;;;;;;3.25;3.25;;;;;25.91;48.03;100715.56;5013202;28;51556;-41
2021/07/04 03:47:15;;;;;;;;;6.00;5.25;;;;;25.90;48.11;100731.38;5013354;28;50965;-41
2021/07/04 03:49:40;;;;;;;;;4.00;4.00;;;;;25.90;48.04;100742.47;5014456;27;51233;-41
2021/07/04 03:52:06;;;;;;;;;5.75;4.25;;;;;25.89;48.04;100743.56;5017128;28;51041;-41
2021/07/04 03:54:32;;;;;;;;;3.25;3.25;;;;;25.89;47.85;100745.50;5013146;28;51049;-41
2021/07/04 03:56:57;;;;;;;;;4.00;4.00;;;;;25.89;48.33;100739.97;5020681;28;51089;-42
2021/07/04 03:59:22;;;;;;;;;4.00;4.00;;;;;25.88;48.17;100722.47;5025641;28;50565;-41
2021/07/04 04:01:47;;;;;;;;;5.00;4.00;;;;;25.89;48.33;100734.41;5018205;28;50884;-42
2021/07/04 04:04:13;;;;;;;;;4.25;4.25;;;;;25.87;48.05;100733.84;5012518;28;50901;-40
2021/07/04 04:06:38;;;;;;;;;4.25;4.25;;;;;25.87;48.29;100740.22;5016195;28;51133;-41
2021/07/04 04:09:03;;;;;;;;;3.00;3.00;;;;;25.88;48.19;100729.97;5015333;27;51173;-40
2021/07/04 04:11:29;;;;;;;;;4.00;4.00;;;;;25.88;48.67;100729.97;5012798;28;50976;-40
2021/07/04 04:13:54;;;;;;;;;4.75;3.25;;;;;25.86;48.40;100724.69;5020165;27;51100;-40
2021/07/04 04:16:19;;;;;;;;;4.50;3.00;;;;;25.86;48.80;100730.22;5013393;28;51046;-41
2021/07/04 04:18:45;;;;;;;;;5.50;4.50;;;;;25.85;48.41;100728.56;5012535;28;51117;-41
2021/07/04 04:21:11;;;;;;;;;5.00;3.75;;;;;25.86;48.73;100738.56;5014763;28;51078;-41
2021/07/04 04:23:36;;;;;;;;;5.00;3.75;;;;;25.86;48.82;100743.28;5015740;27;51959;-50
2021/07/04 04:26:02;;;;;;;;;5.00;5.00;;;;;25.85;48.90;100753.53;5014769;28;50913;-43
2021/07/04 04:28:29;;;;;;;;;6.50;4.25;;;;;25.85;49.30;100752.69;5043832;27;51021;-41
2021/07/04 04:30:54;;;;;;;;;3.00;3.00;;;;;25.85;49.19;100736.06;5027711;28;51032;-43
2021/07/04 04:33:20;;;;;;;;;4.25;3.00;;;;;25.85;49.02;100733.28;5011600;28;51067;-41
2021/07/04 04:35:46;;;;;;;;;5.00;3.00;;;;;25.83;49.27;100730.72;5015171;28;51177;-41
2021/07/04 04:38:11;;;;;;;;;1.75;1.75;;;;;25.84;49.38;100737.97;5020405;27;51031;-43
2021/07/04 04:40:37;;;;;;;;;2.25;2.00;;;;;25.84;49.34;100726.84;5016838;28;51679;-41
2021/07/04 04:43:02;;;;;;;;;2.50;2.25;;;;;25.83;49.64;100711.31;5033006;28;50836;-41
2021/07/04 04:45:29;;;;;;;;;3.00;2.50;;;;;25.83;49.37;100705.75;5022929;27;51060;-41
2021/07/04 04:47:54;;;;;;;;;3.00;3.00;;;;;25.84;49.60;100701.03;5015228;28;51156;-41
2021/07/04 04:50:20;;;;;;;;;4.50;3.75;;;;;25.83;49.67;100708.53;5016355;27;51081;-41
2021/07/04 04:52:45;;;;;;;;;2.00;2.00;;;;;25.83;49.61;100710.47;5020932;28;51040;-41
2021/07/04 04:55:11;;;;;;;;;2.00;2.00;;;;;25.81;49.81;100709.91;5015619;28;51001;-41
2021/07/04 04:57:37;;;;;;;;;3.25;2.00;;;;;25.82;49.67;100714.34;5019358;27;51200;-41
2021/07/04 05:00:07;;;;;;;;;2.00;2.00;;;;;25.81;49.81;100705.19;5031477;27;51786;-41
2021/07/04 05:02:32;;;;;;;;;2.00;2.00;;;;;25.81;49.69;100709.91;5014271;28;53974;-41
2021/07/04 05:04:58;;;;;;;;;2.75;2.00;;;;;25.79;49.66;100712.94;5014884;27;51096;-41
2021/07/04 05:07:23;;;;;;;;;2.25;2.00;;;;;25.79;49.67;100712.09;5031445;28;51147;-41
2021/07/04 05:09:48;;;;;;;;;2.25;2.25;;;;;25.79;49.91;100718.50;5018913;28;50877;-40
2021/07/04 05:12:14;;;;;;;;;2.75;2.25;;;;;25.79;49.76;100712.09;5029884;28;51592;-41
2021/07/04 05:14:39;;;;;;;;;1.00;1.00;;;;;25.78;49.68;100714.03;5014939;28;50973;-41
2021/07/04 05:17:04;;;;;;;;;2.00;2.00;;;;;25.78;49.78;100713.22;5015579;28;50948;-42
2021/07/04 05:19:30;;;;;;;;;3.00;2.75;;;;;25.76;49.94;100710.69;5019224;28;50966;-41
2021/07/04 05:21:55;;;;;;;;;2.00;2.00;;;;;25.77;49.86;100722.63;5015492;28;51166;-41
2021/07/04 05:24:21;;;;;;;;;2.25;2.25;;;;;25.76;49.81;100721.78;5017477;28;51042;-41
2021/07/04 05:26:46;;;;;;;;;5.00;3.00;;;;;25.75;49.87;100734.00;5016414;28;51531;-41
2021/07/04 05:29:11;;;;;;;;;3.50;3.00;;;;;25.76;49.91;100732.06;5019801;27;51264;-41
2021/07/04 05:31:37;;;;;;;;;2.75;2.75;;;;;25.75;49.71;100733.16;5014507;28;51780;-41
2021/07/04 05:34:03;;;;;;;;;2.50;2.00;;;;;25.76;49.77;100729.28;5014314;28;51230;-41
2021/07/04 05:36:28;;;;;;;;;2.00;2.00;;;;;25.75;49.89;100738.72;5014999;28;51020;-41
2021/07/04 05:38:54;;;;;;;;;1.75;1.75;;;;;25.74;49.88;100726.78;5017111;28;51397;-41
2021/07/04 05:41:20;;;;;;;;;4.00;3.00;;;;;25.73;49.94;100730.63;5017478;28;51789;-40
2021/07/04 05:43:48;;;;;;;;;2.00;2.00;;;;;25.73;49.93;100727.84;5015463;28;51188;-41
2021/07/04 05:46:13;;;;;;;;;4.50;2.75;;;;;25.72;50.10;100719.78;5033367;28;50905;-41
2021/07/04 05:48:41;;;;;;;;;5.00;3.00;;;;;25.72;49.64;100708.69;5015572;28;51045;-40
2021/07/04 05:51:06;;;;;;;;;3.50;2.75;;;;;25.70;49.70;100714.50;5015647;28;51077;-40
2021/07/04 05:53:32;;;;;;;;;3.50;3.25;;;;;25.71;49.82;100712.56;5030820;28;51102;-40
2021/07/04 05:55:57;;;;;;;;;3.25;3.00;;;;;25.69;49.90;100707.25;5018418;28;51172;-40
2021/07/04 05:58:23;;;;;;;;;4.00;3.00;;;;;25.71;49.83;100709.78;5015539;28;51088;-41
2021/07/04 06:00:49;;;;;;;;;4.00;3.00;;;;;25.69;49.83;100701.69;5018719;28;51052;-42
2021/07/04 06:03:15;;;;;;;;;3.00;2.00;;;;;25.69;49.79;100706.41;5029956;28;51286;-41
2021/07/04 06:05:40;;;;;;;;;1.00;1.00;;;;;25.69;49.93;100710.03;5033687;28;51169;-42
2021/07/04 06:08:06;;;;;;;;;2.00;2.00;;;;;25.69;49.84;100723.06;5015446;27;51442;-41
2021/07/04 06:10:31;;;;;;;;;2.50;2.50;;;;;25.68;49.96;100719.44;5015743;28;52062;-41
2021/07/04 06:12:57;;;;;;;;;5.25;5.00;;;;;25.68;49.88;100722.22;5018503;28;50885;-40
2021/07/04 06:15:22;;;;;;;;;3.00;2.75;;;;;25.68;50.16;100726.94;5015635;28;51014;-42
2021/07/04 06:17:47;;;;;;;;;2.00;2.00;;;;;25.67;49.80;100722.50;5029419;28;51258;-41
2021/07/04 06:20:16;;;;;;;;;2.00;2.00;;;;;25.66;50.15;100718.88;5013902;28;51765;-40
2021/07/04 06:22:42;;;;;;;;;3.75;3.75;;;;;25.65;49.87;100717.22;5014858;27;51004;-40
2021/07/04 06:25:10;;;;;;;;;5.50;3.75;;;;;25.66;49.89;100726.38;5017035;28;51273;-41
2021/07/04 06:27:36;;;;;;;;;3.00;3.00;;;;;25.65;49.89;100731.06;5058367;27;51362;-42
2021/07/04 06:30:04;;;;;;;;;3.75;3.00;;;;;25.63;49.82;100725.75;5013783;28;51111;-45
2021/07/04 06:32:29;;;;;;;;;3.00;3.00;;;;;25.62;49.67;100726.88;5012607;28;51295;-47
2021/07/04 06:34:55;;;;;;;;;2.00;2.00;;;;;25.61;49.58;100729.91;5014074;27;51214;-45
2021/07/04 06:37:20;;;;;;;;;1.50;1.50;;;;;25.59;49.40;100723.78;5014118;28;50965;-49
2021/07/04 06:39:45;;;;;;;;;3.00;2.25;;;;;25.58;49.51;100727.66;5018387;28;51124;-45
2021/07/04 06:42:11;;;;;;;;;2.00;2.00;;;;;25.57;49.34;100728.75;5017052;28;51093;-45
2021/07/04 06:44:37;;;;;;;;;3.25;2.25;;;;;25.56;49.21;100727.91;5016281;28;51341;-46
2021/07/04 06:47:03;;;;;;;;;3.75;2.00;;;;;25.55;49.14;100715.16;5028733;28;51306;-46
2021/07/04 06:49:29;;;;;;;;;2.00;2.00;;;;;25.54;49.10;100710.69;5012690;27;51597;-47
2021/07/04 06:51:54;;;;;;;;;2.75;1.00;;;;;25.54;49.23;100712.63;5027418;27;51101;-47
2021/07/04 06:54:20;;;;;;;;;3.00;2.50;;;;;25.53;49.01;100719.25;5012914;27;51222;-46
2021/07/04 06:56:45;;;;;;;;;2.00;2.00;;;;;25.51;49.19;100725.06;5015146;28;51148;-43
2021/07/04 06:59:10;;;;;;;;;4.25;4.25;;;;;25.50;48.93;100717.00;5014098;28;51729;-43
2021/07/04 07:01:36;;;;;;;;;2.50;2.25;;;;;25.48;49.10;100714.50;5010941;28;51242;-43
2021/07/04 07:04:01;;;;;;;;;3.75;3.50;;;;;25.47;49.01;100712.00;5025528;27;51157;-45
2021/07/04 07:06:26;;;;;;;;;3.00;3.00;;;;;25.46;48.97;100715.88;5023844;28;50901;-46
2021/07/04 07:08:52;;;;;;;;;2.25;2.25;;;;;25.44;48.84;100710.59;5020005;28;50962;-46
2021/07/04 07:11:18;;;;;;;;;2.75;2.75;;;;;25.43;48.87;100710.81;5010958;27;51059;-45
2021/07/04 07:13:43;;;;;;;;;3.25;2.25;;;;;25.42;48.90;100706.38;5013314;28;51049;-44
2021/07/04 07:16:09;;;;;;;;;2.25;2.00;;;;;25.41;48.78;100704.69;5015135;28;51064;-46
2021/07/04 07:18:34;;;;;;;;;8.25;5.00;;;;;25.39;48.99;100713.28;5012143;27;50904;-45
2021/07/04 07:21:00;;;;;;;;;3.25;2.25;;;;;25.40;48.95;100705.78;5012696;28;51098;-43
2021/07/04 07:23:25;;;;;;;;;6.50;2.25;;;;;25.38;48.92;100713.53;5010670;28;51070;-42
2021/07/04 07:25:51;;;;;;;;;4.50;4.50;;;;;25.36;49.05;100716.56;5009297;28;51048;-45
2021/07/04 07:28:17;;;;;;;;;3.75;3.00;;;;;25.37;49.24;100717.41;5022362;27;51020;-43
2021/07/04 07:30:42;;;;;;;;;7.00;5.25;;;;;25.35;49.04;100716.84;5023092;28;51012;-42
2021/07/04 07:33:08;;;;;;;;;8.50;6.00;;;;;25.38;49.59;100713.53;5013537;28;51314;-43
2021/07/04 07:35:33;;;;;;;;;5.75;4.00;;;;;25.40;49.90;100722.44;5014118;27;51321;-43
2021/07/04 07:38:03;;;;;;;;;6.25;4.75;;;;;25.43;50.34;100733.00;5009797;28;51829;-42
2021/07/04 07:40:30;;;;;;;;;3.00;3.00;;;;;25.45;50.50;100744.69;5008991;28;51410;-43
2021/07/04 07:42:57;;;;;;;;;6.50;5.25;;;;;25.46;50.27;100740.81;5012281;27;51015;-46
2021/07/04 07:45:22;;;;;;;;;5.00;3.75;;;;;25.47;50.65;100736.94;5010978;28;51592;-43
2021/07/04 07:47:48;;;;;;;;;2.25;2.25;;;;;25.47;51.02;100735.00;5011469;28;51699;-46
2021/07/04 07:50:13;;;;;;;;;4.75;2.50;;;;;25.49;50.97;100731.97;5013928;28;50912;-45
2021/07/04 07:52:39;;;;;;;;;3.75;3.00;;;;;25.49;50.80;100738.34;5011664;28;51219;-44
2021/07/04 07:55:05;;;;;;;;;7.50;4.00;;;;;25.50;51.19;100741.97;5011513;28;50881;-42
2021/07/04 07:57:31;;;;;;;;;2.50;1.75;;;;;25.52;51.02;100745.31;5009167;28;52677;-52
2021/07/04 07:59:57;;;;;;;;;4.00;4.00;;;;;25.53;51.11;100741.44;5011555;28;50944;-44
2021/07/04 08:02:22;;;;;;;;;6.25;4.00;;;;;25.53;51.42;100736.75;5014931;27;51416;-45
2021/07/04 08:04:47;;;;;;;;;4.75;3.50;;;;;25.54;50.91;100740.38;5017636;27;51026;-42
2021/07/04 08:07:13;;;;;;;;;3.75;3.25;;;;;25.56;51.28;100741.78;5011577;28;51328;-41
2021/07/04 08:09:38;;;;;;;;;6.50;1.75;;;;;25.56;51.43;100738.19;5011647;27;50893;-43
2021/07/04 08:12:04;;;;;;;;;4.00;4.00;;;;;25.57;51.53;100740.69;5020149;28;51064;-43
2021/07/04 08:14:30;;;;;;;;;4.00;4.00;;;;;25.57;51.15;100740.69;5016038;28;51029;-47
2021/07/04 08:16:55;;;;;;;;;3.75;3.00;;;;;25.58;51.08;100734.03;5011483;28;52373;-43
2021/07/04 08:19:20;;;;;;;;;3.25;3.00;;;;;25.58;50.93;100731.25;5012596;28;52296;-44
2021/07/04 08:21:46;;;;;;;;;3.00;3.00;;;;;25.59;50.93;100719.06;5013094;28;50918;-44
2021/07/04 08:24:11;;;;;;;;;3.75;2.75;;;;;25.59;50.71;100707.97;5012029;28;51227;-48
2021/07/04 08:26:37;;;;;;;;;3.25;3.00;;;;;25.62;50.68;100696.34;5026742;27;52742;-45
2021/07/04 08:29:03;;;;;;;;;3.50;3.50;;;;;25.66;50.36;100690.31;5021736;27;50960;-49
2021/07/04 08:31:28;;;;;;;;;2.50;2.50;;;;;25.67;50.00;100697.53;5027346;27;51218;-44
2021/07/04 08:33:54;;;;;;;;;4.00;3.00;;;;;25.65;49.52;100671.97;5013135;27;50910;-49
2021/07/04 08:36:21;;;;;;;;;2.25;2.25;;;;;25.65;49.87;100677.53;5025152;27;51086;-47
2021/07/04 08:38:46;;;;;;;;;2.00;2.00;;;;;25.64;49.64;100690.56;5011796;28;51012;-46
2021/07/04 08:41:13;;;;;;;;;2.50;2.00;;;;;25.62;49.06;100685.25;5012680;27;51172;-43
2021/07/04 08:43:38;;;;;;;;;2.00;2.00;;;;;25.62;49.13;100684.41;5011755;27;51159;-45
2021/07/04 08:46:05;;;;;;;;;2.00;2.00;;;;;25.60;48.70;100683.84;5009196;28;51786;-45
2021/07/04 08:48:33;;;;;;;;;2.50;2.00;;;;;25.59;49.03;100693.25;5025152;28;51149;-45
2021/07/04 08:50:58;;;;;;;;;2.25;0.50;;;;;25.59;48.91;100707.97;5016455;27;51090;-44
2021/07/04 08:53:24;;;;;;;;;1.25;1.00;;;;;25.59;49.02;100713.53;5024114;28;50963;-46
2021/07/04 08:55:50;;;;;;;;;2.00;1.00;;;;;25.60;49.08;100712.41;5006780;28;51942;-44
2021/07/04 08:58:21;;;;;;;;;2.25;1.75;;;;;25.62;48.97;100712.16;5012793;28;51173;-47
2021/07/04 09:01:16;;;;;;;;;1.50;1.50;;;;;25.61;49.24;100711.31;5009397;27;51137;-44
2021/07/04 09:03:45;;;;;;;;;2.00;1.50;;;;;25.61;49.36;100711.31;5010077;28;51120;-48
2021/07/04 09:06:13;;;;;;;;;2.00;2.00;;;;;25.62;49.54;100704.66;5015123;28;52105;-57
2021/07/04 09:08:40;;;;;;;;;2.75;2.00;;;;;25.64;49.94;100707.22;5014154;27;50960;-44
2021/07/04 09:11:17;;;;;;;;;2.00;2.00;;;;;25.66;50.18;100706.94;5007114;28;51317;-52
2021/07/04 09:13:46;;;;;;;;;1.25;0.75;;;;;25.67;49.91;100706.69;5015332;28;51174;-45
2021/07/04 09:16:19;;;;;;;;;5.50;1.75;;;;;25.69;50.31;100703.63;5021036;28;51857;-44
2021/07/04 09:18:45;;;;;;;;;4.00;2.00;;;;;25.69;50.23;100707.25;5025960;28;51023;-46
2021/07/04 09:21:22;;;;;;;;;2.75;2.00;;;;;25.72;49.88;100700.38;5011693;28;51196;-46
2021/07/04 09:23:48;;;;;;;;;2.25;2.25;;;;;25.74;50.02;100703.72;5023908;27;51165;-44
2021/07/04 09:26:43;;;;;;;;;3.00;1.00;;;;;25.74;50.03;100703.72;5013745;28;51963;-44
2021/07/04 09:29:10;;;;;;;;;2.25;2.25;;;;;25.76;49.74;100698.75;5028726;27;51903;-43
2021/07/04 09:31:38;;;;;;;;;4.50;2.75;;;;;25.77;50.02;100689.34;5027836;28;51110;-44
2021/07/04 09:34:08;;;;;;;;;0.75;0.75;;;;;25.79;50.41;100684.38;5013865;28;51241;-45
2021/07/04 09:36:36;;;;;;;;;1.75;1.75;;;;;25.80;50.32;100681.31;5014073;27;51992;-42
2021/07/04 09:39:15;;;;;;;;;4.00;2.00;;;;;25.81;50.27;100683.00;5013710;28;51149;-42
2021/07/04 09:42:01;;;;;;;;;2.50;1.50;;;;;25.82;50.61;100676.34;5012398;27;51294;-41
2021/07/04 09:44:26;;;;;;;;;5.50;2.00;;;;;25.84;50.12;100678.84;5009630;28;51039;-42
2021/07/04 09:47:18;;;;;;;;;5.50;4.00;;;;;25.83;50.24;100671.63;5011984;28;50963;-42
2021/07/04 09:49:46;;;;;;;;;1.00;1.00;;;;;25.84;50.71;100667.75;5034165;27;51231;-43
2021/07/04 09:52:12;;;;;;;;;2.75;1.25;;;;;25.84;49.97;100670.53;5014772;28;51092;-42
2021/07/04 09:54:38;;;;;;;;;3.00;2.00;;;;;25.84;49.94;100668.59;5012814;28;50944;-43
2021/07/04 09:57:06;;;;;;;;;3.25;2.25;;;;;25.84;49.92;100667.75;5012042;28;50961;-43
2021/07/04 09:59:32;;;;;;;;;4.75;2.00;;;;;25.84;49.70;100673.31;5013598;28;51816;-42
2021/07/04 10:01:57;;;;;;;;;2.00;2.00;;;;;25.84;49.98;100667.75;5020326;27;51204;-45
2021/07/04 10:04:32;;;;;;;;;2.00;2.00;;;;;25.84;49.52;100668.59;5009774;28;51241;-42
2021/07/04 10:06:59;;;;;;;;;2.00;2.00;;;;;25.86;49.51;100668.34;5010563;28;51891;-44
2021/07/04 10:09:25;;;;;;;;;1.00;1.00;;;;;25.86;49.25;100669.19;5015014;28;51385;-44
2021/07/04 10:11:52;;;;;;;;;3.25;3.25;;;;;25.85;49.17;100667.50;5018696;28;51149;-47
2021/07/04 10:14:17;;;;;;;;;4.00;2.00;;;;;25.86;49.19;100663.63;5018386;28;51019;-42
2021/07/04 10:16:45;;;;;;;;;3.75;3.75;;;;;25.87;48.77;100656.16;5013601;28;51055;-42
2021/07/04 10:19:18;;;;;;;;;5.25;3.50;;;;;25.87;48.94;100664.47;5044307;28;50669;-41
2021/07/04 10:21:44;;;;;;;;;6.75;3.00;;;;;25.86;48.82;100660.88;5015652;28;51081;-46
2021/07/04 10:24:11;;;;;;;;;3.25;3.25;;;;;25.85;48.83;100661.97;5016516;28;51013;-42
2021/07/04 10:26:38;;;;;;;;;1.25;1.25;;;;;25.86;48.66;100660.03;5011771;28;53995;-42
2021/07/04 10:29:07;;;;;;;;;2.75;2.00;;;;;25.86;48.66;100660.88;5034802;27;51325;-46
2021/07/04 10:31:33;;;;;;;;;2.00;2.00;;;;;25.85;48.14;100648.09;5012601;28;51095;-44
2021/07/04 10:34:10;;;;;;;;;3.00;2.00;;;;;25.82;46.95;100651.38;5009061;28;51088;-44
2021/07/04 10:36:59;;;;;;;;;2.00;2.00;;;;;25.75;46.88;100645.22;5010454;28;51765;-47
2021/07/04 10:39:31;;;;;;;;;2.00;2.00;;;;;25.71;45.85;100657.09;5017744;28;50521;-46
2021/07/04 10:42:06;;;;;;;;;4.00;2.00;;;;;25.66;46.40;100652.31;5009575;28;51019;-47
2021/07/04 10:44:47;;;;;;;;;2.00;1.00;;;;;25.65;46.60;100645.09;5011596;28;51199;-49
2021/07/04 10:47:14;;;;;;;;;1.25;1.25;;;;;25.63;46.25;100634.22;5007740;28;52659;-49
2021/07/04 10:49:43;;;;;;;;;3.00;2.00;;;;;25.63;46.49;100636.16;5009071;28;51263;-46
2021/07/04 10:52:15;;;;;;;;;2.00;2.00;;;;;25.62;46.55;100628.94;5014156;28;51088;-47
2021/07/04 10:54:44;;;;;;;;;1.75;1.75;;;;;25.61;46.30;100633.66;5030647;28;51037;-45
2021/07/04 10:57:11;;;;;;;;;1.50;1.25;;;;;25.62;45.72;100632.53;5010184;28;51907;-45
2021/07/04 10:59:58;;;;;;;;;2.25;1.00;;;;;25.62;45.88;100631.72;5011738;28;51170;-47
2021/07/04 11:02:42;;;;;;;;;1.75;1.00;;;;;25.62;46.10;100634.50;5007221;28;51617;-44
2021/07/04 11:05:34;;;;;;;;;1.00;1.00;;;;;25.60;45.72;100637.53;5016853;28;50849;-45
2021/07/04 11:07:59;;;;;;;;;2.00;1.50;;;;;25.59;46.41;100632.25;5050507;27;53052;-46
2021/07/04 11:10:27;;;;;;;;;1.25;1.25;;;;;25.59;46.22;100635.84;5014486;27;51188;-45
2021/07/04 11:13:16;;;;;;;;;2.00;2.00;;;;;25.59;46.18;100632.25;5012127;27;51092;-45
2021/07/04 11:15:48;;;;;;;;;2.00;1.75;;;;;25.61;46.25;100627.25;5012883;28;51103;-44
2021/07/04 11:18:18;;;;;;;;;1.00;1.00;;;;;25.60;46.47;100629.22;5012240;28;51837;-45
2021/07/04 11:20:44;;;;;;;;;3.00;1.25;;;;;25.61;46.54;100627.25;5025502;27;51361;-48
2021/07/04 11:25:59;;;;;;;;;1.00;1.00;;;;;25.63;46.57;100622.28;5012417;28;51197;-47